sensor_id;sensor_type;location;lat;lon;timestamp;pressure;altitude;pressure_sealevel;temperature;humidity
49973;BME280;71845;49.798;10.968;2023-09-07T00:01:15;98642.91;;;17.90;60.24
49973;BME280;71845;49.798;10.968;2023-09-07T00:03:42;98608.00;;;17.49;60.74
49973;BME280;71845;49.798;10.968;2023-09-07T00:06:09;98650.31;;;17.77;60.52
49973;BME280;71845;49.798;10.968;2023-09-07T00:08:36;98646.44;;;17.60;61.13
49973;BME280;71845;49.798;10.968;2023-09-07T00:11:03;98644.09;;;17.67;61.10
49973;BME280;71845;49.798;10.968;2023-09-07T00:13:30;98635.19;;;17.45;61.46
49973;BME280;71845;49.798;10.968;2023-09-07T00:15:59;98612.00;;;17.34;61.74
49973;BME280;71845;49.798;10.968;2023-09-07T00:18:27;98640.69;;;17.43;61.99
49973;BME280;71845;49.798;10.968;2023-09-07T00:20:53;98648.09;;;17.18;62.96
49973;BME280;71845;49.798;10.968;2023-09-07T00:23:20;98648.69;;;17.22;62.83
49973;BME280;71845;49.798;10.968;2023-09-07T00:25:47;98644.97;;;17.13;62.82
49973;BME280;71845;49.798;10.968;2023-09-07T00:28:14;98634.59;;;17.20;62.49
49973;BME280;71845;49.798;10.968;2023-09-07T00:30:40;98635.84;;;17.16;62.48
49973;BME280;71845;49.798;10.968;2023-09-07T00:33:08;98634.72;;;17.18;62.56
49973;BME280;71845;49.798;10.968;2023-09-07T00:35:36;98627.84;;;17.04;63.15
49973;BME280;71845;49.798;10.968;2023-09-07T00:38:04;98632.97;;;16.96;63.37
49973;BME280;71845;49.798;10.968;2023-09-07T00:40:30;98639.84;;;16.89;63.78
49973;BME280;71845;49.798;10.968;2023-09-07T00:42:58;98622.19;;;16.86;63.44
49973;BME280;71845;49.798;10.968;2023-09-07T00:45:25;98637.91;;;16.80;63.87
49973;BME280;71845;49.798;10.968;2023-09-07T00:47:52;98642.69;;;16.76;64.41
49973;BME280;71845;49.798;10.968;2023-09-07T00:50:20;98635.22;;;16.58;64.56
49973;BME280;71845;49.798;10.968;2023-09-07T00:52:47;98636.19;;;16.57;65.14
49973;BME280;71845;49.798;10.968;2023-09-07T00:55:15;98638.31;;;16.31;65.93
49973;BME280;71845;49.798;10.968;2023-09-07T00:57:41;98629.31;;;16.09;66.42
49973;BME280;71845;49.798;10.968;2023-09-07T01:00:09;98631.25;;;16.18;66.05
49973;BME280;71845;49.798;10.968;2023-09-07T01:02:37;98631.50;;;15.92;66.65
49973;BME280;71845;49.798;10.968;2023-09-07T01:05:04;98630.91;;;15.77;67.31
49973;BME280;71845;49.798;10.968;2023-09-07T01:07:36;98624.69;;;15.77;67.44
49973;BME280;71845;49.798;10.968;2023-09-07T01:10:04;98627.38;;;15.77;67.16
49973;BME280;71845;49.798;10.968;2023-09-07T01:12:31;98584.00;;;15.50;67.54
49973;BME280;71845;49.798;10.968;2023-09-07T01:14:57;98599.78;;;15.54;67.49
49973;BME280;71845;49.798;10.968;2023-09-07T01:17:26;98597.25;;;15.63;67.12
49973;BME280;71845;49.798;10.968;2023-09-07T01:19:54;98624.47;;;15.69;67.61
49973;BME280;71845;49.798;10.968;2023-09-07T01:22:26;98608.66;;;15.54;67.95
49973;BME280;71845;49.798;10.968;2023-09-07T01:24:53;98622.03;;;15.66;67.30
49973;BME280;71845;49.798;10.968;2023-09-07T01:27:20;98620.44;;;15.63;67.61
49973;BME280;71845;49.798;10.968;2023-09-07T01:29:46;98614.13;;;15.53;67.78
49973;BME280;71845;49.798;10.968;2023-09-07T01:32:13;98617.50;;;15.55;67.79
49973;BME280;71845;49.798;10.968;2023-09-07T01:34:39;98618.63;;;15.52;67.86
49973;BME280;71845;49.798;10.968;2023-09-07T01:37:07;98614.25;;;15.51;67.43
49973;BME280;71845;49.798;10.968;2023-09-07T01:39:36;98614.34;;;15.49;68.08
49973;BME280;71845;49.798;10.968;2023-09-07T01:42:03;98620.28;;;15.42;68.32
49973;BME280;71845;49.798;10.968;2023-09-07T01:44:30;98617.53;;;15.43;68.32
49973;BME280;71845;49.798;10.968;2023-09-07T01:46:56;98617.38;;;15.45;68.05
49973;BME280;71845;49.798;10.968;2023-09-07T01:49:23;98617.28;;;15.58;68.09
49973;BME280;71845;49.798;10.968;2023-09-07T01:51:51;98616.19;;;15.60;67.92
49973;BME280;71845;49.798;10.968;2023-09-07T01:54:17;98603.06;;;15.57;67.81
49973;BME280;71845;49.798;10.968;2023-09-07T01:56:45;98606.00;;;15.54;67.88
49973;BME280;71845;49.798;10.968;2023-09-07T01:59:12;98590.09;;;15.41;67.79
49973;BME280;71845;49.798;10.968;2023-09-07T02:01:38;98599.06;;;15.40;67.99
49973;BME280;71845;49.798;10.968;2023-09-07T02:04:05;98613.38;;;15.39;68.51
49973;BME280;71845;49.798;10.968;2023-09-07T02:06:33;98600.94;;;15.15;68.72
49973;BME280;71845;49.798;10.968;2023-09-07T02:08:59;98617.25;;;14.99;69.78
49973;BME280;71845;49.798;10.968;2023-09-07T02:11:26;98610.50;;;15.06;69.00
49973;BME280;71845;49.798;10.968;2023-09-07T02:13:54;98584.59;;;14.60;70.37
49973;BME280;71845;49.798;10.968;2023-09-07T02:16:20;98623.19;;;14.43;71.98
49973;BME280;71845;49.798;10.968;2023-09-07T02:18:49;98620.28;;;14.70;70.96
49973;BME280;71845;49.798;10.968;2023-09-07T02:21:16;98621.25;;;14.69;70.74
49973;BME280;71845;49.798;10.968;2023-09-07T02:23:42;98607.28;;;14.65;70.61
49973;BME280;71845;49.798;10.968;2023-09-07T02:26:09;98629.38;;;14.43;72.23
49973;BME280;71845;49.798;10.968;2023-09-07T02:28:35;98627.72;;;14.54;71.36
49973;BME280;71845;49.798;10.968;2023-09-07T02:31:06;98622.56;;;14.39;71.70
49973;BME280;71845;49.798;10.968;2023-09-07T02:33:34;98628.59;;;14.17;72.45
49973;BME280;71845;49.798;10.968;2023-09-07T02:36:02;98623.84;;;13.96;73.28
49973;BME280;71845;49.798;10.968;2023-09-07T02:38:28;98629.16;;;14.09;72.68
49973;BME280;71845;49.798;10.968;2023-09-07T02:40:56;98631.56;;;14.25;72.26
49973;BME280;71845;49.798;10.968;2023-09-07T02:43:22;98635.44;;;14.08;72.68
49973;BME280;71845;49.798;10.968;2023-09-07T02:45:50;98638.13;;;13.95;73.41
49973;BME280;71845;49.798;10.968;2023-09-07T02:48:18;98642.09;;;13.76;73.83
49973;BME280;71845;49.798;10.968;2023-09-07T02:50:44;98615.44;;;13.50;74.69
49973;BME280;71845;49.798;10.968;2023-09-07T02:53:14;98638.97;;;13.44;75.31
49973;BME280;71845;49.798;10.968;2023-09-07T02:55:40;98643.97;;;13.61;74.12
49973;BME280;71845;49.798;10.968;2023-09-07T02:58:07;98627.38;;;13.45;74.84
49973;BME280;71845;49.798;10.968;2023-09-07T03:00:33;98640.47;;;13.48;74.88
49973;BME280;71845;49.798;10.968;2023-09-07T03:03:01;98640.06;;;13.54;74.52
49973;BME280;71845;49.798;10.968;2023-09-07T03:05:29;98634.72;;;13.41;75.01
49973;BME280;71845;49.798;10.968;2023-09-07T03:07:56;98647.28;;;13.65;74.31
49973;BME280;71845;49.798;10.968;2023-09-07T03:10:22;98641.00;;;13.53;74.10
49973;BME280;71845;49.798;10.968;2023-09-07T03:12:50;98644.22;;;13.45;74.21
49973;BME280;71845;49.798;10.968;2023-09-07T03:15:19;98643.63;;;13.14;75.93
49973;BME280;71845;49.798;10.968;2023-09-07T03:17:47;98635.31;;;13.06;75.68
49973;BME280;71845;49.798;10.968;2023-09-07T03:20:14;98638.53;;;13.24;74.92
49973;BME280;71845;49.798;10.968;2023-09-07T03:22:44;98634.59;;;13.17;75.09
49973;BME280;71845;49.798;10.968;2023-09-07T03:25:12;98638.84;;;13.06;75.42
49973;BME280;71845;49.798;10.968;2023-09-07T03:27:40;98627.22;;;12.94;75.47
49973;BME280;71845;49.798;10.968;2023-09-07T03:30:07;98634.84;;;12.86;76.87
49973;BME280;71845;49.798;10.968;2023-09-07T03:32:33;98639.69;;;13.07;75.90
49973;BME280;71845;49.798;10.968;2023-09-07T03:35:00;98638.38;;;12.87;76.65
49973;BME280;71845;49.798;10.968;2023-09-07T03:37:27;98640.38;;;12.96;75.61
49973;BME280;71845;49.798;10.968;2023-09-07T03:39:56;98627.72;;;12.87;75.59
49973;BME280;71845;49.798;10.968;2023-09-07T03:42:22;98638.75;;;12.80;75.63
49973;BME280;71845;49.798;10.968;2023-09-07T03:44:49;98626.81;;;12.73;76.83
49973;BME280;71845;49.798;10.968;2023-09-07T03:47:15;98642.78;;;12.73;76.09
49973;BME280;71845;49.798;10.968;2023-09-07T03:49:42;98643.00;;;12.70;76.78
49973;BME280;71845;49.798;10.968;2023-09-07T03:52:09;98633.31;;;12.69;76.00
49973;BME280;71845;49.798;10.968;2023-09-07T03:54:37;98634.03;;;12.58;77.56
49973;BME280;71845;49.798;10.968;2023-09-07T03:57:05;98638.88;;;12.51;78.09
49973;BME280;71845;49.798;10.968;2023-09-07T03:59:32;98622.97;;;12.22;78.61
49973;BME280;71845;49.798;10.968;2023-09-07T04:01:58;98639.47;;;12.42;78.11
49973;BME280;71845;49.798;10.968;2023-09-07T04:04:25;98626.53;;;12.50;78.26
49973;BME280;71845;49.798;10.968;2023-09-07T04:06:52;98633.25;;;12.56;78.24
49973;BME280;71845;49.798;10.968;2023-09-07T04:09:21;98627.88;;;12.43;77.32
49973;BME280;71845;49.798;10.968;2023-09-07T04:11:47;98642.91;;;12.15;79.26
49973;BME280;71845;49.798;10.968;2023-09-07T04:14:15;98609.66;;;11.95;79.42
49973;BME280;71845;49.798;10.968;2023-09-07T04:16:42;98634.66;;;12.05;79.60
49973;BME280;71845;49.798;10.968;2023-09-07T04:19:08;98628.13;;;11.96;78.89
49973;BME280;71845;49.798;10.968;2023-09-07T04:21:35;98644.75;;;12.00;79.23
49973;BME280;71845;49.798;10.968;2023-09-07T04:24:02;98621.44;;;11.91;78.92
49973;BME280;71845;49.798;10.968;2023-09-07T04:26:29;98639.13;;;12.05;78.10
49973;BME280;71845;49.798;10.968;2023-09-07T04:28:55;98652.41;;;12.05;78.11
49973;BME280;71845;49.798;10.968;2023-09-07T04:31:23;98652.78;;;11.99;78.72
49973;BME280;71845;49.798;10.968;2023-09-07T04:33:52;98626.34;;;11.82;78.90
49973;BME280;71845;49.798;10.968;2023-09-07T04:36:19;98648.81;;;11.91;78.51
49973;BME280;71845;49.798;10.968;2023-09-07T04:38:46;98644.19;;;11.95;78.32
49973;BME280;71845;49.798;10.968;2023-09-07T04:41:13;98643.31;;;12.09;78.22
49973;BME280;71845;49.798;10.968;2023-09-07T04:43:40;98655.66;;;11.95;78.29
49973;BME280;71845;49.798;10.968;2023-09-07T04:46:08;98656.59;;;11.94;78.92
49973;BME280;71845;49.798;10.968;2023-09-07T04:48:36;98660.28;;;12.06;77.99
49973;BME280;71845;49.798;10.968;2023-09-07T04:51:04;98654.59;;;12.13;77.36
49973;BME280;71845;49.798;10.968;2023-09-07T04:53:33;98659.91;;;12.13;78.87
49973;BME280;71845;49.798;10.968;2023-09-07T04:56:01;98650.53;;;12.07;77.92
49973;BME280;71845;49.798;10.968;2023-09-07T04:58:28;98647.47;;;12.13;77.92
49973;BME280;71845;49.798;10.968;2023-09-07T05:00:54;98645.66;;;12.14;78.42
49973;BME280;71845;49.798;10.968;2023-09-07T05:03:21;98654.59;;;12.13;78.96
49973;BME280;71845;49.798;10.968;2023-09-07T05:05:53;98660.28;;;12.35;78.61
49973;BME280;71845;49.798;10.968;2023-09-07T05:08:19;98658.75;;;12.17;79.66
49973;BME280;71845;49.798;10.968;2023-09-07T05:10:47;98642.16;;;12.13;79.05
49973;BME280;71845;49.798;10.968;2023-09-07T05:13:14;98664.63;;;12.36;78.73
49973;BME280;71845;49.798;10.968;2023-09-07T05:15:47;98632.88;;;12.06;79.38
49973;BME280;71845;49.798;10.968;2023-09-07T05:18:13;98654.75;;;12.38;78.64
49973;BME280;71845;49.798;10.968;2023-09-07T05:20:41;98643.28;;;12.38;78.73
49973;BME280;71845;49.798;10.968;2023-09-07T05:23:11;98629.78;;;12.27;79.23
49973;BME280;71845;49.798;10.968;2023-09-07T05:25:42;98633.19;;;12.29;79.43
49973;BME280;71845;49.798;10.968;2023-09-07T05:28:09;98677.34;;;12.73;79.39
49973;BME280;71845;49.798;10.968;2023-09-07T05:30:36;98652.25;;;12.50;79.49
49973;BME280;71845;49.798;10.968;2023-09-07T05:33:03;98666.22;;;12.81;79.17
49973;BME280;71845;49.798;10.968;2023-09-07T05:35:29;98660.31;;;12.90;78.82
49973;BME280;71845;49.798;10.968;2023-09-07T05:37:58;98652.34;;;13.03;78.59
49973;BME280;71845;49.798;10.968;2023-09-07T05:40:26;98685.19;;;13.43;79.28
49973;BME280;71845;49.798;10.968;2023-09-07T05:42:53;98681.06;;;14.03;81.79
49973;BME280;71845;49.798;10.968;2023-09-07T05:45:20;98674.22;;;14.25;78.51
49973;BME280;71845;49.798;10.968;2023-09-07T05:47:46;98691.94;;;14.88;80.43
49973;BME280;71845;49.798;10.968;2023-09-07T05:50:13;98656.47;;;15.46;81.28
49973;BME280;71845;49.798;10.968;2023-09-07T05:52:40;98679.72;;;16.02;80.43
49973;BME280;71845;49.798;10.968;2023-09-07T05:55:07;98677.47;;;16.20;75.13
49973;BME280;71845;49.798;10.968;2023-09-07T05:57:37;98676.56;;;16.54;78.15
49973;BME280;71845;49.798;10.968;2023-09-07T06:00:04;98690.56;;;17.23;76.85
49973;BME280;71845;49.798;10.968;2023-09-07T06:02:33;98661.34;;;16.99;70.89
49973;BME280;71845;49.798;10.968;2023-09-07T06:05:00;98650.63;;;17.84;68.58
49973;BME280;71845;49.798;10.968;2023-09-07T06:07:27;98669.84;;;18.20;68.90
49973;BME280;71845;49.798;10.968;2023-09-07T06:09:54;98680.19;;;17.94;65.51
49973;BME280;71845;49.798;10.968;2023-09-07T06:12:21;98658.44;;;19.28;59.29
49973;BME280;71845;49.798;10.968;2023-09-07T06:14:49;98672.00;;;21.42;51.54
49973;BME280;71845;49.798;10.968;2023-09-07T06:17:15;98675.16;;;20.83;54.72
49973;BME280;71845;49.798;10.968;2023-09-07T06:19:42;98662.56;;;22.77;48.21
49973;BME280;71845;49.798;10.968;2023-09-07T06:22:08;98670.59;;;23.11;47.86
49973;BME280;71845;49.798;10.968;2023-09-07T06:24:35;98677.16;;;24.80;43.33
49973;BME280;71845;49.798;10.968;2023-09-07T06:27:01;98676.88;;;23.12;48.21
49973;BME280;71845;49.798;10.968;2023-09-07T06:29:28;98677.19;;;23.25;48.29
49973;BME280;71845;49.798;10.968;2023-09-07T06:31:56;98667.84;;;25.29;43.96
49973;BME280;71845;49.798;10.968;2023-09-07T06:34:23;98667.38;;;25.87;42.70
49973;BME280;71845;49.798;10.968;2023-09-07T06:36:50;98682.69;;;25.18;44.74
49973;BME280;71845;49.798;10.968;2023-09-07T06:39:16;98684.22;;;26.12;42.30
49973;BME280;71845;49.798;10.968;2023-09-07T06:41:45;98682.28;;;27.10;40.52
49973;BME280;71845;49.798;10.968;2023-09-07T06:44:12;98688.53;;;26.52;41.17
49973;BME280;71845;49.798;10.968;2023-09-07T06:46:39;98674.84;;;27.69;38.25
49973;BME280;71845;49.798;10.968;2023-09-07T06:49:07;98677.81;;;27.02;39.70
49973;BME280;71845;49.798;10.968;2023-09-07T06:51:34;98668.00;;;28.99;36.56
49973;BME280;71845;49.798;10.968;2023-09-07T06:54:00;98662.72;;;30.32;32.86
49973;BME280;71845;49.798;10.968;2023-09-07T06:56:27;98685.84;;;30.23;34.69
49973;BME280;71845;49.798;10.968;2023-09-07T06:58:57;98662.38;;;29.95;34.63
49973;BME280;71845;49.798;10.968;2023-09-07T07:01:23;98685.78;;;31.85;32.11
49973;BME280;71845;49.798;10.968;2023-09-07T07:03:50;98681.53;;;31.06;32.22
49973;BME280;71845;49.798;10.968;2023-09-07T07:06:19;98678.03;;;30.47;33.12
49973;BME280;71845;49.798;10.968;2023-09-07T07:08:46;98677.81;;;28.38;35.67
49973;BME280;71845;49.798;10.968;2023-09-07T07:11:12;98674.16;;;29.69;34.81
49973;BME280;71845;49.798;10.968;2023-09-07T07:13:39;98667.63;;;29.90;35.30
49973;BME280;71845;49.798;10.968;2023-09-07T07:16:06;98676.97;;;27.45;37.86
49973;BME280;71845;49.798;10.968;2023-09-07T07:18:32;98688.13;;;30.92;34.03
49973;BME280;71845;49.798;10.968;2023-09-07T07:20:59;98682.53;;;29.54;35.07
49973;BME280;71845;49.798;10.968;2023-09-07T07:23:26;98680.00;;;27.14;37.51
49973;BME280;71845;49.798;10.968;2023-09-07T07:25:53;98682.56;;;29.60;34.41
49973;BME280;71845;49.798;10.968;2023-09-07T07:28:19;98683.13;;;31.53;32.89
49973;BME280;71845;49.798;10.968;2023-09-07T07:30:46;98678.66;;;33.08;31.51
49973;BME280;71845;49.798;10.968;2023-09-07T07:33:13;98692.06;;;33.59;29.87
49973;BME280;71845;49.798;10.968;2023-09-07T07:35:40;98692.34;;;34.99;28.00
49973;BME280;71845;49.798;10.968;2023-09-07T07:38:06;98689.56;;;34.70;27.63
49973;BME280;71845;49.798;10.968;2023-09-07T07:40:35;98679.06;;;32.25;31.54
49973;BME280;71845;49.798;10.968;2023-09-07T07:43:02;98692.34;;;33.81;28.63
49973;BME280;71845;49.798;10.968;2023-09-07T07:45:29;98689.13;;;31.37;31.63
49973;BME280;71845;49.798;10.968;2023-09-07T07:47:57;98702.25;;;34.71;28.10
49973;BME280;71845;49.798;10.968;2023-09-07T07:50:23;98699.69;;;32.28;30.13
49973;BME280;71845;49.798;10.968;2023-09-07T07:52:51;98689.41;;;33.40;29.61
49973;BME280;71845;49.798;10.968;2023-09-07T07:55:18;98689.63;;;30.35;32.82
49973;BME280;71845;49.798;10.968;2023-09-07T07:57:45;98696.09;;;33.68;29.02
49973;BME280;71845;49.798;10.968;2023-09-07T08:00:13;98685.47;;;30.72;33.00
49973;BME280;71845;49.798;10.968;2023-09-07T08:02:39;98690.44;;;30.88;32.23
49973;BME280;71845;49.798;10.968;2023-09-07T08:05:06;98681.28;;;32.16;32.19
49973;BME280;71845;49.798;10.968;2023-09-07T08:07:33;98688.19;;;31.75;31.14
49973;BME280;71845;49.798;10.968;2023-09-07T08:09:59;98687.53;;;30.24;32.81
49973;BME280;71845;49.798;10.968;2023-09-07T08:12:26;98695.56;;;30.78;33.22
49973;BME280;71845;49.798;10.968;2023-09-07T08:14:56;98673.03;;;30.17;33.24
49973;BME280;71845;49.798;10.968;2023-09-07T08:17:23;98687.50;;;30.38;32.34
49973;BME280;71845;49.798;10.968;2023-09-07T08:19:51;98680.19;;;31.99;31.60
49973;BME280;71845;49.798;10.968;2023-09-07T08:22:23;98688.16;;;30.78;33.43
49973;BME280;71845;49.798;10.968;2023-09-07T08:24:49;98682.50;;;31.76;31.48
49973;BME280;71845;49.798;10.968;2023-09-07T08:27:16;98680.75;;;28.85;34.14
49973;BME280;71845;49.798;10.968;2023-09-07T08:29:43;98692.06;;;31.35;32.09
49973;BME280;71845;49.798;10.968;2023-09-07T08:32:14;98695.94;;;31.20;31.97
49973;BME280;71845;49.798;10.968;2023-09-07T08:34:42;98696.28;;;33.31;30.00
49973;BME280;71845;49.798;10.968;2023-09-07T08:37:09;98697.19;;;31.82;31.43
49973;BME280;71845;49.798;10.968;2023-09-07T08:39:36;98688.50;;;32.29;29.26
49973;BME280;71845;49.798;10.968;2023-09-07T08:42:04;98686.03;;;32.02;31.36
49973;BME280;71845;49.798;10.968;2023-09-07T08:44:32;98691.28;;;33.28;29.75
49973;BME280;71845;49.798;10.968;2023-09-07T08:46:59;98693.06;;;32.17;30.05
49973;BME280;71845;49.798;10.968;2023-09-07T08:49:30;98677.72;;;30.62;33.44
49973;BME280;71845;49.798;10.968;2023-09-07T08:52:01;98691.81;;;32.87;28.90
49973;BME280;71845;49.798;10.968;2023-09-07T08:54:30;98696.88;;;32.53;29.93
49973;BME280;71845;49.798;10.968;2023-09-07T08:56:57;98698.66;;;34.17;27.55
49973;BME280;71845;49.798;10.968;2023-09-07T08:59:23;98690.66;;;34.81;27.14
49973;BME280;71845;49.798;10.968;2023-09-07T09:01:50;98696.16;;;32.02;28.90
49973;BME280;71845;49.798;10.968;2023-09-07T09:04:17;98701.78;;;34.74;28.16
49973;BME280;71845;49.798;10.968;2023-09-07T09:06:45;98693.09;;;32.73;30.99
49973;BME280;71845;49.798;10.968;2023-09-07T09:09:21;98694.28;;;33.08;30.31
49973;BME280;71845;49.798;10.968;2023-09-07T09:11:49;98690.06;;;34.67;27.74
49973;BME280;71845;49.798;10.968;2023-09-07T09:14:16;98692.09;;;35.81;27.55
49973;BME280;71845;49.798;10.968;2023-09-07T09:16:48;98709.50;;;39.61;22.87
49973;BME280;71845;49.798;10.968;2023-09-07T09:19:16;98691.47;;;35.27;27.36
49973;BME280;71845;49.798;10.968;2023-09-07T09:21:45;98695.81;;;34.65;27.78
49973;BME280;71845;49.798;10.968;2023-09-07T09:24:12;98686.78;;;33.69;27.10
49973;BME280;71845;49.798;10.968;2023-09-07T09:26:40;98676.91;;;35.61;25.08
49973;BME280;71845;49.798;10.968;2023-09-07T09:29:09;98686.03;;;34.57;26.60
49973;BME280;71845;49.798;10.968;2023-09-07T09:31:36;98681.66;;;33.61;26.24
49973;BME280;71845;49.798;10.968;2023-09-07T09:34:03;98689.34;;;37.69;23.02
49973;BME280;71845;49.798;10.968;2023-09-07T09:36:34;98679.19;;;36.21;24.07
49973;BME280;71845;49.798;10.968;2023-09-07T09:39:03;98683.22;;;33.93;27.20
49973;BME280;71845;49.798;10.968;2023-09-07T09:41:32;98684.84;;;34.53;26.62
49973;BME280;71845;49.798;10.968;2023-09-07T09:43:59;98679.13;;;35.13;24.26
49973;BME280;71845;49.798;10.968;2023-09-07T09:46:26;98672.66;;;34.90;25.70
49973;BME280;71845;49.798;10.968;2023-09-07T09:48:54;98673.66;;;35.01;26.96
49973;BME280;71845;49.798;10.968;2023-09-07T09:51:22;98664.41;;;37.59;23.84
49973;BME280;71845;49.798;10.968;2023-09-07T09:53:50;98675.03;;;36.40;25.05
49973;BME280;71845;49.798;10.968;2023-09-07T09:56:18;98676.41;;;35.81;23.71
49973;BME280;71845;49.798;10.968;2023-09-07T09:58:45;98668.81;;;35.71;24.17
49973;BME280;71845;49.798;10.968;2023-09-07T10:01:12;98660.00;;;37.63;23.83
49973;BME280;71845;49.798;10.968;2023-09-07T10:03:42;98657.63;;;38.20;23.06
49973;BME280;71845;49.798;10.968;2023-09-07T10:06:12;98659.75;;;36.33;24.18
49973;BME280;71845;49.798;10.968;2023-09-07T10:08:52;98655.47;;;38.33;22.80
49973;BME280;71845;49.798;10.968;2023-09-07T10:11:29;98666.06;;;35.71;23.53
49973;BME280;71845;49.798;10.968;2023-09-07T10:13:59;98664.59;;;38.28;23.28
49973;BME280;71845;49.798;10.968;2023-09-07T10:16:28;98668.41;;;40.20;20.20
49973;BME280;71845;49.798;10.968;2023-09-07T10:18:55;98655.59;;;37.02;21.79
49973;BME280;71845;49.798;10.968;2023-09-07T10:21:24;98661.50;;;40.68;19.51
49973;BME280;71845;49.798;10.968;2023-09-07T10:23:51;98641.69;;;36.42;23.36
49973;BME280;71845;49.798;10.968;2023-09-07T10:26:19;98653.91;;;38.04;22.33
49973;BME280;71845;49.798;10.968;2023-09-07T10:28:59;98650.25;;;36.68;23.95
49973;BME280;71845;49.798;10.968;2023-09-07T10:31:26;98654.53;;;38.11;22.34
49973;BME280;71845;49.798;10.968;2023-09-07T10:33:53;98650.50;;;37.81;22.09
49973;BME280;71845;49.798;10.968;2023-09-07T10:36:22;98650.31;;;36.06;24.92
49973;BME280;71845;49.798;10.968;2023-09-07T10:38:49;98623.72;;;36.39;25.70
49973;BME280;71845;49.798;10.968;2023-09-07T10:41:18;98645.06;;;36.99;24.27
49973;BME280;71845;49.798;10.968;2023-09-07T10:43:50;98650.66;;;35.24;24.34
49973;BME280;71845;49.798;10.968;2023-09-07T10:46:18;98648.78;;;36.60;23.09
49973;BME280;71845;49.798;10.968;2023-09-07T10:48:48;98645.69;;;38.20;23.55
49973;BME280;71845;49.798;10.968;2023-09-07T10:51:15;98645.44;;;39.11;22.47
49973;BME280;71845;49.798;10.968;2023-09-07T10:53:42;98639.31;;;38.78;22.88
49973;BME280;71845;49.798;10.968;2023-09-07T10:56:09;98619.72;;;36.08;23.11
49973;BME280;71845;49.798;10.968;2023-09-07T10:58:36;98616.13;;;38.25;22.53
49973;BME280;71845;49.798;10.968;2023-09-07T11:01:06;98623.31;;;36.80;23.02
49973;BME280;71845;49.798;10.968;2023-09-07T11:03:36;98613.59;;;35.66;25.40
49973;BME280;71845;49.798;10.968;2023-09-07T11:06:05;98624.31;;;33.65;25.57
49973;BME280;71845;49.798;10.968;2023-09-07T11:08:33;98625.81;;;34.20;25.04
49973;BME280;71845;49.798;10.968;2023-09-07T11:11:00;98605.25;;;36.40;23.43
49973;BME280;71845;49.798;10.968;2023-09-07T11:13:28;98614.41;;;38.14;22.09
49973;BME280;71845;49.798;10.968;2023-09-07T11:15:56;98608.56;;;36.20;22.43
49973;BME280;71845;49.798;10.968;2023-09-07T11:18:24;98608.63;;;38.21;21.54
49973;BME280;71845;49.798;10.968;2023-09-07T11:20:52;98601.81;;;34.27;25.44
49973;BME280;71845;49.798;10.968;2023-09-07T11:23:20;98592.91;;;35.64;25.34
49973;BME280;71845;49.798;10.968;2023-09-07T11:25:48;98596.91;;;32.68;26.78
49973;BME280;71845;49.798;10.968;2023-09-07T11:28:16;98599.56;;;33.29;26.37
49973;BME280;71845;49.798;10.968;2023-09-07T11:30:49;98600.13;;;34.84;24.58
49973;BME280;71845;49.798;10.968;2023-09-07T11:33:17;98601.25;;;34.71;25.61
49973;BME280;71845;49.798;10.968;2023-09-07T11:35:45;98603.13;;;35.46;24.55
49973;BME280;71845;49.798;10.968;2023-09-07T11:38:13;98609.06;;;34.34;24.17
49973;BME280;71845;49.798;10.968;2023-09-07T11:40:41;98592.72;;;32.16;24.87
49973;BME280;71845;49.798;10.968;2023-09-07T11:43:09;98592.59;;;33.14;26.22
49973;BME280;71845;49.798;10.968;2023-09-07T11:45:37;98588.22;;;31.40;25.94
49973;BME280;71845;49.798;10.968;2023-09-07T11:48:05;98588.00;;;32.23;25.81
49973;BME280;71845;49.798;10.968;2023-09-07T11:50:33;98591.88;;;32.34;26.66
49973;BME280;71845;49.798;10.968;2023-09-07T11:53:01;98586.34;;;31.09;26.55
49973;BME280;71845;49.798;10.968;2023-09-07T11:55:28;98588.94;;;32.78;24.46
49973;BME280;71845;49.798;10.968;2023-09-07T11:57:55;98592.00;;;32.39;25.61
49973;BME280;71845;49.798;10.968;2023-09-07T12:00:21;98574.91;;;30.86;25.94
49973;BME280;71845;49.798;10.968;2023-09-07T12:02:48;98578.25;;;30.56;27.83
49973;BME280;71845;49.798;10.968;2023-09-07T12:05:15;98573.53;;;31.79;27.55
49973;BME280;71845;49.798;10.968;2023-09-07T12:07:43;98571.97;;;30.88;28.18
49973;BME280;71845;49.798;10.968;2023-09-07T12:10:11;98571.50;;;32.04;27.25
49973;BME280;71845;49.798;10.968;2023-09-07T12:12:39;98570.34;;;31.12;27.92
49973;BME280;71845;49.798;10.968;2023-09-07T12:15:07;98569.38;;;31.00;27.89
49973;BME280;71845;49.798;10.968;2023-09-07T12:17:34;98569.91;;;31.34;26.40
49973;BME280;71845;49.798;10.968;2023-09-07T12:20:01;98563.63;;;31.59;27.60
49973;BME280;71845;49.798;10.968;2023-09-07T12:22:28;98564.13;;;31.24;26.25
49973;BME280;71845;49.798;10.968;2023-09-07T12:24:55;98569.09;;;31.59;25.78
49973;BME280;71845;49.798;10.968;2023-09-07T12:27:23;98558.53;;;30.79;28.30
49973;BME280;71845;49.798;10.968;2023-09-07T12:29:50;98562.69;;;30.11;28.33
49973;BME280;71845;49.798;10.968;2023-09-07T12:32:16;98559.09;;;30.88;28.10
49973;BME280;71845;49.798;10.968;2023-09-07T12:34:42;98538.09;;;31.14;27.67
49973;BME280;71845;49.798;10.968;2023-09-07T12:37:09;98556.66;;;30.80;27.78
49973;BME280;71845;49.798;10.968;2023-09-07T12:39:35;98551.56;;;31.41;27.34
49973;BME280;71845;49.798;10.968;2023-09-07T12:42:02;98550.75;;;30.51;29.36
49973;BME280;71845;49.798;10.968;2023-09-07T12:44:30;98544.78;;;31.18;28.27
49973;BME280;71845;49.798;10.968;2023-09-07T12:46:57;98546.16;;;29.99;29.68
49973;BME280;71845;49.798;10.968;2023-09-07T12:49:24;98549.47;;;30.54;28.19
49973;BME280;71845;49.798;10.968;2023-09-07T12:51:50;98545.19;;;30.64;28.54